Rizokarpason, Cyprus
Current Conditions -  °F | °C
As of 2:50 PM on Sunday 23 Nov 2014 (Local Time) from LCEN Reporting Station
Rain Showers Rain Showers  
Wind Chill: 14°   Ceiling: 3000
Heat Index: 14°   Visibility: 3mi
Dew Point: 11°   Wind: 7mph
Humidity: 82%   Direction: 50°NE
Pressure: 29.94"   Gusts: NA
Location:  35.58°N, 34.4°E
Report Text: LCEN 231150Z 05006KT 020V080 5000 SHRA FEW025TCU BKN030 14/11 Q1014 NOSIG
Loading
Personal Weather Stations






























Interactive Weather Map New forecast layout! Learn more

10-Day Weather Forecast

Advertisements
Track Severe Weather on mobile